sensor_id;sensor_type;location;lat;lon;timestamp;pressure;altitude;pressure_sealevel;temperature;humidity
52469;BME280;38381;53.688;10.776;2023-07-24T00:01:23;100016.94;;;17.17;92.23
52469;BME280;38381;53.688;10.776;2023-07-24T00:06:24;100014.66;;;17.06;93.45
52469;BME280;38381;53.688;10.776;2023-07-24T00:11:24;100006.03;;;17.29;92.08
52469;BME280;38381;53.688;10.776;2023-07-24T00:16:24;99994.16;;;17.19;92.70
52469;BME280;38381;53.688;10.776;2023-07-24T00:21:25;99991.16;;;17.30;91.61
52469;BME280;38381;53.688;10.776;2023-07-24T00:26:25;99986.75;;;17.30;91.87
52469;BME280;38381;53.688;10.776;2023-07-24T00:31:26;99983.91;;;17.38;91.27
52469;BME280;38381;53.688;10.776;2023-07-24T00:36:26;99973.19;;;17.19;92.91
52469;BME280;38381;53.688;10.776;2023-07-24T00:41:27;99972.00;;;17.28;92.37
52469;BME280;38381;53.688;10.776;2023-07-24T00:46:28;99965.31;;;17.19;93.70
52469;BME280;38381;53.688;10.776;2023-07-24T00:51:32;99954.59;;;17.52;91.55
52469;BME280;38381;53.688;10.776;2023-07-24T00:56:34;99958.50;;;17.40;91.96
52469;BME280;38381;53.688;10.776;2023-07-24T01:01:35;99960.13;;;17.43;92.44
52469;BME280;38381;53.688;10.776;2023-07-24T01:06:35;99952.22;;;17.44;92.37
52469;BME280;38381;53.688;10.776;2023-07-24T01:11:39;99954.81;;;17.46;92.79
52469;BME280;38381;53.688;10.776;2023-07-24T01:16:42;99953.06;;;17.45;92.78
52469;BME280;38381;53.688;10.776;2023-07-24T01:22:01;99954.00;;;17.44;93.38
52469;BME280;38381;53.688;10.776;2023-07-24T01:27:02;99956.56;;;17.45;93.28
52469;BME280;38381;53.688;10.776;2023-07-24T01:32:03;99956.38;;;17.52;93.09
52469;BME280;38381;53.688;10.776;2023-07-24T01:37:04;99952.06;;;17.49;93.38
52469;BME280;38381;53.688;10.776;2023-07-24T01:42:05;99949.38;;;17.50;92.81
52469;BME280;38381;53.688;10.776;2023-07-24T01:47:05;99947.69;;;17.49;93.28
52469;BME280;38381;53.688;10.776;2023-07-24T01:52:06;99956.41;;;17.50;93.25
52469;BME280;38381;53.688;10.776;2023-07-24T01:57:06;99954.81;;;17.46;93.52
52469;BME280;38381;53.688;10.776;2023-07-24T02:02:07;99940.97;;;17.41;94.26
52469;BME280;38381;53.688;10.776;2023-07-24T02:07:07;99942.59;;;17.45;93.91
52469;BME280;38381;53.688;10.776;2023-07-24T02:12:08;99939.59;;;17.30;94.92
52469;BME280;38381;53.688;10.776;2023-07-24T02:17:08;99935.47;;;17.48;93.90
52469;BME280;38381;53.688;10.776;2023-07-24T02:22:08;99926.22;;;17.38;94.18
52469;BME280;38381;53.688;10.776;2023-07-24T02:27:12;99930.63;;;17.38;94.31
52469;BME280;38381;53.688;10.776;2023-07-24T02:32:14;99927.84;;;17.42;93.94
52469;BME280;38381;53.688;10.776;2023-07-24T02:37:14;99932.75;;;17.26;95.97
52469;BME280;38381;53.688;10.776;2023-07-24T02:42:15;99928.31;;;17.28;95.44
52469;BME280;38381;53.688;10.776;2023-07-24T02:47:15;99932.91;;;17.22;96.95
52469;BME280;38381;53.688;10.776;2023-07-24T02:52:15;99932.94;;;17.20;97.72
52469;BME280;38381;53.688;10.776;2023-07-24T02:57:16;99932.09;;;17.20;97.55
52469;BME280;38381;53.688;10.776;2023-07-24T03:02:16;99933.50;;;17.30;97.78
52469;BME280;38381;53.688;10.776;2023-07-24T03:07:17;99938.88;;;17.27;97.57
52469;BME280;38381;53.688;10.776;2023-07-24T03:12:17;99940.91;;;17.19;98.02
52469;BME280;38381;53.688;10.776;2023-07-24T03:17:17;99934.88;;;17.15;98.36
52469;BME280;38381;53.688;10.776;2023-07-24T03:22:18;99925.84;;;17.24;97.91
52469;BME280;38381;53.688;10.776;2023-07-24T03:27:18;99921.66;;;17.18;98.30
52469;BME280;38381;53.688;10.776;2023-07-24T03:32:19;99913.81;;;17.18;97.88
52469;BME280;38381;53.688;10.776;2023-07-24T03:37:19;99931.41;;;17.15;97.85
52469;BME280;38381;53.688;10.776;2023-07-24T03:42:28;99926.91;;;17.18;97.77
52469;BME280;38381;53.688;10.776;2023-07-24T03:47:28;99920.34;;;17.06;98.36
52469;BME280;38381;53.688;10.776;2023-07-24T03:52:29;99925.16;;;17.19;99.06
52469;BME280;38381;53.688;10.776;2023-07-24T03:57:29;99916.72;;;17.36;97.05
52469;BME280;38381;53.688;10.776;2023-07-24T04:02:29;99914.94;;;17.36;96.78
52469;BME280;38381;53.688;10.776;2023-07-24T04:07:30;99919.38;;;17.34;97.74
52469;BME280;38381;53.688;10.776;2023-07-24T04:12:30;99908.44;;;17.23;98.55
52469;BME280;38381;53.688;10.776;2023-07-24T04:17:31;99915.38;;;17.24;98.82
52469;BME280;38381;53.688;10.776;2023-07-24T04:22:32;99932.31;;;17.14;99.73
52469;BME280;38381;53.688;10.776;2023-07-24T04:27:33;99937.50;;;17.40;97.84
52469;BME280;38381;53.688;10.776;2023-07-24T04:32:33;99930.94;;;17.28;98.42
52469;BME280;38381;53.688;10.776;2023-07-24T04:37:33;99920.41;;;17.30;98.71
52469;BME280;38381;53.688;10.776;2023-07-24T04:42:34;99920.91;;;17.41;98.13
52469;BME280;38381;53.688;10.776;2023-07-24T04:47:34;99904.72;;;17.54;97.27
52469;BME280;38381;53.688;10.776;2023-07-24T04:52:37;99900.28;;;17.79;95.24
52469;BME280;38381;53.688;10.776;2023-07-24T04:57:37;99909.00;;;18.05;93.61
52469;BME280;38381;53.688;10.776;2023-07-24T05:02:37;99902.25;;;18.21;92.40
52469;BME280;38381;53.688;10.776;2023-07-24T05:07:38;99902.78;;;18.29;92.06
52469;BME280;38381;53.688;10.776;2023-07-24T05:12:41;99897.09;;;18.18;92.38
52469;BME280;38381;53.688;10.776;2023-07-24T05:17:41;99900.75;;;18.14;91.70
52469;BME280;38381;53.688;10.776;2023-07-24T05:22:42;99897.09;;;18.18;90.64
52469;BME280;38381;53.688;10.776;2023-07-24T05:27:42;99897.97;;;18.41;89.55
52469;BME280;38381;53.688;10.776;2023-07-24T05:32:42;99883.28;;;18.35;90.03
52469;BME280;38381;53.688;10.776;2023-07-24T05:37:43;99886.59;;;18.62;87.99
52469;BME280;38381;53.688;10.776;2023-07-24T05:42:43;99885.81;;;18.60;88.53
52469;BME280;38381;53.688;10.776;2023-07-24T05:47:44;99888.69;;;18.54;89.10
52469;BME280;38381;53.688;10.776;2023-07-24T05:52:44;99881.22;;;18.65;87.67
52469;BME280;38381;53.688;10.776;2023-07-24T05:57:45;99881.09;;;18.68;87.42
52469;BME280;38381;53.688;10.776;2023-07-24T06:02:45;99878.84;;;18.81;85.94
52469;BME280;38381;53.688;10.776;2023-07-24T06:07:46;99873.03;;;18.95;85.20
52469;BME280;38381;53.688;10.776;2023-07-24T06:12:47;99872.22;;;18.93;84.79
52469;BME280;38381;53.688;10.776;2023-07-24T06:17:47;99868.50;;;18.77;85.58
52469;BME280;38381;53.688;10.776;2023-07-24T06:22:48;99867.81;;;18.94;84.89
52469;BME280;38381;53.688;10.776;2023-07-24T06:27:48;99859.66;;;19.20;84.13
52469;BME280;38381;53.688;10.776;2023-07-24T06:32:49;99861.97;;;19.28;82.89
52469;BME280;38381;53.688;10.776;2023-07-24T06:37:49;99853.84;;;19.53;82.85
52469;BME280;38381;53.688;10.776;2023-07-24T06:42:49;99853.69;;;19.56;80.27
52469;BME280;38381;53.688;10.776;2023-07-24T06:47:50;99850.97;;;19.78;79.88
52469;BME280;38381;53.688;10.776;2023-07-24T06:52:50;99838.38;;;20.04;77.11
52469;BME280;38381;53.688;10.776;2023-07-24T06:57:52;99839.34;;;20.01;78.74
52469;BME280;38381;53.688;10.776;2023-07-24T07:02:52;99830.06;;;19.75;79.58
52469;BME280;38381;53.688;10.776;2023-07-24T07:07:52;99829.53;;;20.05;78.93
52469;BME280;38381;53.688;10.776;2023-07-24T07:12:53;99826.97;;;20.03;78.70
52469;BME280;38381;53.688;10.776;2023-07-24T07:17:53;99826.75;;;20.44;77.97
52469;BME280;38381;53.688;10.776;2023-07-24T07:22:54;99821.41;;;20.46;77.07
52469;BME280;38381;53.688;10.776;2023-07-24T07:27:54;99825.81;;;20.45;75.31
52469;BME280;38381;53.688;10.776;2023-07-24T07:32:55;99812.53;;;20.83;74.82
52469;BME280;38381;53.688;10.776;2023-07-24T07:37:55;99821.06;;;20.88;75.51
52469;BME280;38381;53.688;10.776;2023-07-24T07:42:56;99814.47;;;20.62;73.80
52469;BME280;38381;53.688;10.776;2023-07-24T07:47:57;99820.19;;;20.53;75.57
52469;BME280;38381;53.688;10.776;2023-07-24T07:52:57;99829.06;;;20.69;75.55
52469;BME280;38381;53.688;10.776;2023-07-24T07:57:58;99823.75;;;20.16;76.44
52469;BME280;38381;53.688;10.776;2023-07-24T08:02:58;99831.13;;;20.63;75.25
52469;BME280;38381;53.688;10.776;2023-07-24T08:07:59;99833.19;;;20.56;75.46
52469;BME280;38381;53.688;10.776;2023-07-24T08:12:59;99832.88;;;20.45;75.03
52469;BME280;38381;53.688;10.776;2023-07-24T08:17:59;99826.75;;;20.44;75.28
52469;BME280;38381;53.688;10.776;2023-07-24T08:23:00;99838.69;;;20.52;75.71
52469;BME280;38381;53.688;10.776;2023-07-24T08:28:00;99828.81;;;20.20;76.95
52469;BME280;38381;53.688;10.776;2023-07-24T08:33:01;99829.59;;;20.22;76.43
52469;BME280;38381;53.688;10.776;2023-07-24T08:38:01;99818.41;;;20.17;77.32
52469;BME280;38381;53.688;10.776;2023-07-24T08:43:01;99804.94;;;20.06;78.59
52469;BME280;38381;53.688;10.776;2023-07-24T08:48:02;99800.22;;;20.13;79.06
52469;BME280;38381;53.688;10.776;2023-07-24T08:53:03;99803.75;;;20.12;79.04
52469;BME280;38381;53.688;10.776;2023-07-24T08:58:03;99812.63;;;19.92;79.20
52469;BME280;38381;53.688;10.776;2023-07-24T09:03:07;99804.22;;;20.02;79.23
52469;BME280;38381;53.688;10.776;2023-07-24T09:08:08;99800.75;;;20.19;78.85
52469;BME280;38381;53.688;10.776;2023-07-24T09:13:11;99812.41;;;20.33;78.96
52469;BME280;38381;53.688;10.776;2023-07-24T09:18:12;99800.81;;;20.37;79.23
52469;BME280;38381;53.688;10.776;2023-07-24T09:23:13;99799.84;;;20.38;81.37
52469;BME280;38381;53.688;10.776;2023-07-24T09:28:16;99804.22;;;20.02;81.76
52469;BME280;38381;53.688;10.776;2023-07-24T09:33:17;99799.38;;;20.12;82.45
52469;BME280;38381;53.688;10.776;2023-07-24T09:38:17;99805.00;;;20.04;82.50
52469;BME280;38381;53.688;10.776;2023-07-24T09:43:22;99795.78;;;20.13;83.16
52469;BME280;38381;53.688;10.776;2023-07-24T09:48:26;99786.81;;;20.17;81.26
52469;BME280;38381;53.688;10.776;2023-07-24T09:53:38;99789.81;;;20.81;80.37
52469;BME280;38381;53.688;10.776;2023-07-24T09:58:41;99780.75;;;20.52;80.40
52469;BME280;38381;53.688;10.776;2023-07-24T10:03:47;99784.38;;;20.49;79.09
52469;BME280;38381;53.688;10.776;2023-07-24T10:08:50;99769.75;;;21.12;77.28
52469;BME280;38381;53.688;10.776;2023-07-24T10:13:51;99769.81;;;21.27;76.73
52469;BME280;38381;53.688;10.776;2023-07-24T10:18:52;99759.22;;;21.93;72.62
52469;BME280;38381;53.688;10.776;2023-07-24T10:23:53;99760.00;;;21.79;72.40
52469;BME280;38381;53.688;10.776;2023-07-24T10:28:54;99759.66;;;21.69;72.65
52469;BME280;38381;53.688;10.776;2023-07-24T10:33:54;99745.66;;;21.99;71.52
52469;BME280;38381;53.688;10.776;2023-07-24T10:38:56;99753.41;;;22.02;70.89
52469;BME280;38381;53.688;10.776;2023-07-24T10:43:59;99759.78;;;21.98;71.39
52469;BME280;38381;53.688;10.776;2023-07-24T10:49:00;99788.41;;;21.74;77.02
52469;BME280;38381;53.688;10.776;2023-07-24T10:54:02;99782.22;;;20.75;81.44
52469;BME280;38381;53.688;10.776;2023-07-24T10:59:05;99765.50;;;20.76;80.34
52469;BME280;38381;53.688;10.776;2023-07-24T11:04:06;99759.50;;;20.37;83.24
52469;BME280;38381;53.688;10.776;2023-07-24T11:09:07;99752.34;;;20.92;81.83
52469;BME280;38381;53.688;10.776;2023-07-24T11:14:13;99753.09;;;21.11;82.06
52469;BME280;38381;53.688;10.776;2023-07-24T11:19:22;99754.81;;;21.28;82.48
52469;BME280;38381;53.688;10.776;2023-07-24T11:24:22;99766.31;;;21.27;82.50
52469;BME280;38381;53.688;10.776;2023-07-24T11:29:23;99754.53;;;20.83;82.48
52469;BME280;38381;53.688;10.776;2023-07-24T11:34:24;99753.47;;;21.21;79.04
52469;BME280;38381;53.688;10.776;2023-07-24T11:39:24;99735.22;;;21.49;79.73
52469;BME280;38381;53.688;10.776;2023-07-24T11:44:27;99737.19;;;21.62;78.56
52469;BME280;38381;53.688;10.776;2023-07-24T11:49:29;99733.94;;;21.88;78.96
52469;BME280;38381;53.688;10.776;2023-07-24T11:54:34;99732.28;;;22.02;79.12
52469;BME280;38381;53.688;10.776;2023-07-24T11:59:38;99711.47;;;21.65;77.43
52469;BME280;38381;53.688;10.776;2023-07-24T12:04:39;99719.47;;;22.26;75.93
52469;BME280;38381;53.688;10.776;2023-07-24T12:09:40;99717.44;;;22.45;75.41
52469;BME280;38381;53.688;10.776;2023-07-24T12:14:40;99705.50;;;22.54;74.85
52469;BME280;38381;53.688;10.776;2023-07-24T12:19:40;99711.13;;;22.48;73.40
52469;BME280;38381;53.688;10.776;2023-07-24T12:24:41;99707.38;;;22.66;71.39
52469;BME280;38381;53.688;10.776;2023-07-24T12:29:41;99711.19;;;22.77;71.92
52469;BME280;38381;53.688;10.776;2023-07-24T12:34:42;99709.75;;;22.71;71.80
52469;BME280;38381;53.688;10.776;2023-07-24T12:39:44;99702.50;;;22.75;71.79
52469;BME280;38381;53.688;10.776;2023-07-24T12:44:44;99691.88;;;22.46;69.88
52469;BME280;38381;53.688;10.776;2023-07-24T12:49:44;99673.19;;;22.49;70.95
52469;BME280;38381;53.688;10.776;2023-07-24T12:54:45;99683.22;;;22.73;68.86
52469;BME280;38381;53.688;10.776;2023-07-24T12:59:45;99677.06;;;22.72;68.52
52469;BME280;38381;53.688;10.776;2023-07-24T13:04:46;99679.63;;;22.88;67.56
52469;BME280;38381;53.688;10.776;2023-07-24T13:09:46;99675.47;;;22.84;66.79
52469;BME280;38381;53.688;10.776;2023-07-24T13:14:46;99670.09;;;22.71;65.14
52469;BME280;38381;53.688;10.776;2023-07-24T13:19:47;99662.44;;;23.24;66.66
52469;BME280;38381;53.688;10.776;2023-07-24T13:24:47;99655.81;;;23.17;64.67
52469;BME280;38381;53.688;10.776;2023-07-24T13:29:48;99646.56;;;23.24;64.79
52469;BME280;38381;53.688;10.776;2023-07-24T13:34:48;99632.97;;;23.16;63.99
52469;BME280;38381;53.688;10.776;2023-07-24T13:39:50;99620.59;;;23.43;65.05
52469;BME280;38381;53.688;10.776;2023-07-24T13:44:50;99607.47;;;23.15;64.48
52469;BME280;38381;53.688;10.776;2023-07-24T13:49:52;99616.00;;;23.60;62.69
52469;BME280;38381;53.688;10.776;2023-07-24T13:54:52;99628.41;;;23.72;61.77
52469;BME280;38381;53.688;10.776;2023-07-24T13:59:52;99630.84;;;23.89;62.77
52469;BME280;38381;53.688;10.776;2023-07-24T14:04:53;99635.09;;;23.65;60.73
52469;BME280;38381;53.688;10.776;2023-07-24T14:09:53;99627.53;;;23.32;63.37
52469;BME280;38381;53.688;10.776;2023-07-24T14:14:54;99631.69;;;24.03;62.11
52469;BME280;38381;53.688;10.776;2023-07-24T14:19:54;99624.41;;;24.06;60.65
52469;BME280;38381;53.688;10.776;2023-07-24T14:24:55;99611.66;;;23.59;60.81
52469;BME280;38381;53.688;10.776;2023-07-24T14:29:56;99605.13;;;23.37;61.56
52469;BME280;38381;53.688;10.776;2023-07-24T14:34:56;99587.66;;;23.07;63.20
52469;BME280;38381;53.688;10.776;2023-07-24T14:39:56;99580.34;;;23.11;62.91
52469;BME280;38381;53.688;10.776;2023-07-24T14:44:57;99571.22;;;23.29;63.07
52469;BME280;38381;53.688;10.776;2023-07-24T14:50:02;99564.03;;;23.32;61.92
52469;BME280;38381;53.688;10.776;2023-07-24T14:55:02;99554.66;;;23.40;61.56
52469;BME280;38381;53.688;10.776;2023-07-24T15:00:03;99542.19;;;23.42;62.03
52469;BME280;38381;53.688;10.776;2023-07-24T15:05:04;99534.91;;;23.59;62.37
52469;BME280;38381;53.688;10.776;2023-07-24T15:10:05;99543.59;;;23.74;62.48
52469;BME280;38381;53.688;10.776;2023-07-24T15:15:06;99542.97;;;23.70;61.95
52469;BME280;38381;53.688;10.776;2023-07-24T15:20:07;99531.09;;;23.63;61.76
52469;BME280;38381;53.688;10.776;2023-07-24T15:25:08;99516.06;;;23.50;61.51
52469;BME280;38381;53.688;10.776;2023-07-24T15:30:09;99515.66;;;23.57;62.79
52469;BME280;38381;53.688;10.776;2023-07-24T15:35:10;99503.72;;;23.24;61.80
52469;BME280;38381;53.688;10.776;2023-07-24T15:40:11;99503.97;;;23.46;60.98
52469;BME280;38381;53.688;10.776;2023-07-24T15:45:12;99501.06;;;23.24;61.13
52469;BME280;38381;53.688;10.776;2023-07-24T15:50:13;99478.69;;;23.55;60.40
52469;BME280;38381;53.688;10.776;2023-07-24T15:55:13;99481.53;;;23.52;59.17
52469;BME280;38381;53.688;10.776;2023-07-24T16:00:14;99490.03;;;23.70;59.47
52469;BME280;38381;53.688;10.776;2023-07-24T16:05:17;99483.38;;;23.90;58.63
52469;BME280;38381;53.688;10.776;2023-07-24T16:10:18;99495.97;;;23.99;57.93
52469;BME280;38381;53.688;10.776;2023-07-24T16:15:18;99514.59;;;23.72;56.65
52469;BME280;38381;53.688;10.776;2023-07-24T16:20:19;99526.13;;;23.71;57.73
52469;BME280;38381;53.688;10.776;2023-07-24T16:25:21;99562.16;;;23.06;56.17
52469;BME280;38381;53.688;10.776;2023-07-24T16:30:21;99568.09;;;22.25;58.25
52469;BME280;38381;53.688;10.776;2023-07-24T16:35:22;99585.34;;;21.56;62.39
52469;BME280;38381;53.688;10.776;2023-07-24T16:40:22;99579.66;;;21.16;64.25
52469;BME280;38381;53.688;10.776;2023-07-24T16:45:23;99579.63;;;20.86;64.88
52469;BME280;38381;53.688;10.776;2023-07-24T16:50:23;99601.84;;;20.31;65.62
52469;BME280;38381;53.688;10.776;2023-07-24T16:55:24;99617.50;;;20.17;65.08
52469;BME280;38381;53.688;10.776;2023-07-24T17:00:25;99615.50;;;20.04;67.79
52469;BME280;38381;53.688;10.776;2023-07-24T17:05:25;99604.97;;;19.87;70.85
52469;BME280;38381;53.688;10.776;2023-07-24T17:10:25;99613.63;;;19.72;72.51
52469;BME280;38381;53.688;10.776;2023-07-24T17:15:26;99634.31;;;19.60;73.35
52469;BME280;38381;53.688;10.776;2023-07-24T17:20:26;99636.44;;;19.35;75.32
52469;BME280;38381;53.688;10.776;2023-07-24T17:25:27;99628.56;;;19.16;76.07
52469;BME280;38381;53.688;10.776;2023-07-24T17:30:27;99633.53;;;19.03;77.16
52469;BME280;38381;53.688;10.776;2023-07-24T17:35:28;99629.13;;;18.84;77.71
52469;BME280;38381;53.688;10.776;2023-07-24T17:40:28;99619.53;;;18.64;78.52
52469;BME280;38381;53.688;10.776;2023-07-24T17:45:29;99612.50;;;18.65;78.15
52469;BME280;38381;53.688;10.776;2023-07-24T17:50:29;99594.59;;;18.73;76.38
52469;BME280;38381;53.688;10.776;2023-07-24T17:55:29;99587.63;;;18.53;75.66
52469;BME280;38381;53.688;10.776;2023-07-24T18:00:30;99582.88;;;18.61;75.34
52469;BME280;38381;53.688;10.776;2023-07-24T18:05:33;99595.78;;;18.47;76.06
52469;BME280;38381;53.688;10.776;2023-07-24T18:10:34;99610.41;;;18.53;74.96
52469;BME280;38381;53.688;10.776;2023-07-24T18:15:35;99637.16;;;18.42;76.29
52469;BME280;38381;53.688;10.776;2023-07-24T18:20:36;99645.41;;;18.33;76.37
52469;BME280;38381;53.688;10.776;2023-07-24T18:25:36;99637.81;;;18.26;76.81
52469;BME280;38381;53.688;10.776;2023-07-24T18:30:37;99641.16;;;18.09;78.24
52469;BME280;38381;53.688;10.776;2023-07-24T18:35:37;99638.47;;;17.91;78.84
52469;BME280;38381;53.688;10.776;2023-07-24T18:40:38;99628.28;;;17.83;78.98
52469;BME280;38381;53.688;10.776;2023-07-24T18:45:38;99598.13;;;17.71;79.15
52469;BME280;38381;53.688;10.776;2023-07-24T18:50:38;99581.50;;;17.72;79.72
52469;BME280;38381;53.688;10.776;2023-07-24T18:55:39;99559.81;;;17.68;80.42
52469;BME280;38381;53.688;10.776;2023-07-24T19:00:41;99556.19;;;17.71;80.33
52469;BME280;38381;53.688;10.776;2023-07-24T19:05:41;99569.19;;;17.74;79.98
52469;BME280;38381;53.688;10.776;2023-07-24T19:10:42;99608.16;;;17.83;80.11
52469;BME280;38381;53.688;10.776;2023-07-24T19:15:42;99617.44;;;17.70;80.24
52469;BME280;38381;53.688;10.776;2023-07-24T19:20:42;99630.31;;;17.54;81.15
52469;BME280;38381;53.688;10.776;2023-07-24T19:25:43;99650.78;;;17.44;81.40
52469;BME280;38381;53.688;10.776;2023-07-24T19:30:43;99655.91;;;17.47;81.81
52469;BME280;38381;53.688;10.776;2023-07-24T19:35:44;99660.06;;;17.31;82.25
52469;BME280;38381;53.688;10.776;2023-07-24T19:40:54;99664.91;;;17.18;82.90
52469;BME280;38381;53.688;10.776;2023-07-24T19:45:54;99679.78;;;16.94;84.29
52469;BME280;38381;53.688;10.776;2023-07-24T19:50:55;99674.66;;;16.91;84.51
52469;BME280;38381;53.688;10.776;2023-07-24T19:55:55;99693.97;;;16.88;85.12
52469;BME280;38381;53.688;10.776;2023-07-24T20:00:56;99702.56;;;16.92;85.03
52469;BME280;38381;53.688;10.776;2023-07-24T20:05:58;99708.22;;;16.80;85.77
52469;BME280;38381;53.688;10.776;2023-07-24T20:10:59;99714.34;;;16.79;86.15
52469;BME280;38381;53.688;10.776;2023-07-24T20:16:01;99726.88;;;16.70;86.71
52469;BME280;38381;53.688;10.776;2023-07-24T20:21:02;99726.88;;;16.70;87.33
52469;BME280;38381;53.688;10.776;2023-07-24T20:26:02;99728.22;;;16.57;87.94
52469;BME280;38381;53.688;10.776;2023-07-24T20:31:03;99735.91;;;16.62;88.77
52469;BME280;38381;53.688;10.776;2023-07-24T20:36:08;99741.41;;;16.54;89.09
52469;BME280;38381;53.688;10.776;2023-07-24T20:41:08;99745.06;;;16.48;89.30
52469;BME280;38381;53.688;10.776;2023-07-24T20:46:12;99746.63;;;16.54;89.17
52469;BME280;38381;53.688;10.776;2023-07-24T20:56:15;99734.75;;;16.44;89.35
52469;BME280;38381;53.688;10.776;2023-07-24T21:01:17;99741.56;;;16.49;89.71
52469;BME280;38381;53.688;10.776;2023-07-24T21:06:17;99745.41;;;16.39;90.56
52469;BME280;38381;53.688;10.776;2023-07-24T21:11:18;99748.69;;;16.44;90.75
52469;BME280;38381;53.688;10.776;2023-07-24T21:16:18;99758.97;;;16.50;90.21
52469;BME280;38381;53.688;10.776;2023-07-24T21:21:19;99754.94;;;16.40;90.99
52469;BME280;38381;53.688;10.776;2023-07-24T21:26:19;99767.97;;;16.42;91.56
52469;BME280;38381;53.688;10.776;2023-07-24T21:31:19;99773.13;;;16.45;91.54
52469;BME280;38381;53.688;10.776;2023-07-24T21:36:20;99773.47;;;16.34;91.62
52469;BME280;38381;53.688;10.776;2023-07-24T21:41:21;99773.97;;;16.45;91.46
52469;BME280;38381;53.688;10.776;2023-07-24T21:46:21;99774.13;;;16.41;91.73
52469;BME280;38381;53.688;10.776;2023-07-24T21:51:23;99781.06;;;16.42;91.56
52469;BME280;38381;53.688;10.776;2023-07-24T21:56:23;99780.97;;;16.45;90.46
52469;BME280;38381;53.688;10.776;2023-07-24T22:01:24;99790.69;;;16.41;90.39
52469;BME280;38381;53.688;10.776;2023-07-24T22:06:24;99782.78;;;16.43;89.31
52469;BME280;38381;53.688;10.776;2023-07-24T22:11:25;99792.34;;;16.44;88.40
52469;BME280;38381;53.688;10.776;2023-07-24T22:16:25;99795.94;;;16.41;88.33
52469;BME280;38381;53.688;10.776;2023-07-24T22:21:26;99806.47;;;16.38;87.53
52469;BME280;38381;53.688;10.776;2023-07-24T22:26:26;99806.78;;;16.29;86.43
52469;BME280;38381;53.688;10.776;2023-07-24T22:31:27;99812.25;;;16.21;86.15
52469;BME280;38381;53.688;10.776;2023-07-24T22:36:29;99826.97;;;16.25;85.99
52469;BME280;38381;53.688;10.776;2023-07-24T22:41:29;99822.78;;;16.20;85.22
52469;BME280;38381;53.688;10.776;2023-07-24T22:46:30;99825.72;;;16.09;86.04
52469;BME280;38381;53.688;10.776;2023-07-24T22:51:30;99831.97;;;16.05;85.30
52469;BME280;38381;53.688;10.776;2023-07-24T22:56:30;99832.34;;;15.93;85.42
52469;BME280;38381;53.688;10.776;2023-07-24T23:01:31;99830.56;;;15.93;85.41
52469;BME280;38381;53.688;10.776;2023-07-24T23:06:32;99841.91;;;15.94;85.07
52469;BME280;38381;53.688;10.776;2023-07-24T23:11:32;99846.00;;;15.73;85.35
52469;BME280;38381;53.688;10.776;2023-07-24T23:16:33;99853.00;;;15.70;85.69
52469;BME280;38381;53.688;10.776;2023-07-24T23:21:33;99847.09;;;15.64;85.62
52469;BME280;38381;53.688;10.776;2023-07-24T23:26:34;99845.63;;;15.55;85.94
52469;BME280;38381;53.688;10.776;2023-07-24T23:31:34;99852.66;;;15.53;85.77
52469;BME280;38381;53.688;10.776;2023-07-24T23:36:35;99850.34;;;15.42;85.58
52469;BME280;38381;53.688;10.776;2023-07-24T23:41:35;99852.22;;;15.37;85.89
52469;BME280;38381;53.688;10.776;2023-07-24T23:46:36;99850.75;;;15.27;86.10
52469;BME280;38381;53.688;10.776;2023-07-24T23:51:38;99856.06;;;15.24;86.63
52469;BME280;38381;53.688;10.776;2023-07-24T23:56:39;99853.56;;;15.19;87.06
